sensor_id;sensor_type;location;lat;lon;timestamp;pressure;altitude;pressure_sealevel;temperature;humidity
22255;BME280;11296;42.684;23.322;2022-09-25T00:01:20;95613.34;;;10.22;100.00
22255;BME280;11296;42.684;23.322;2022-09-25T00:03:46;95592.31;;;10.12;100.00
22255;BME280;11296;42.684;23.322;2022-09-25T00:06:15;95579.31;;;9.92;100.00
22255;BME280;11296;42.684;23.322;2022-09-25T00:08:41;95588.41;;;10.04;100.00
22255;BME280;11296;42.684;23.322;2022-09-25T00:11:10;95540.06;;;9.77;100.00
22255;BME280;11296;42.684;23.322;2022-09-25T00:13:36;95578.72;;;9.88;100.00
22255;BME280;11296;42.684;23.322;2022-09-25T00:16:03;95603.03;;;10.03;100.00
22255;BME280;11296;42.684;23.322;2022-09-25T00:18:28;95574.69;;;9.75;100.00
22255;BME280;11296;42.684;23.322;2022-09-25T00:21:14;95572.59;;;9.69;100.00
22255;BME280;11296;42.684;23.322;2022-09-25T00:23:41;95588.13;;;9.75;100.00
22255;BME280;11296;42.684;23.322;2022-09-25T00:26:11;95550.50;;;9.47;100.00
22255;BME280;11296;42.684;23.322;2022-09-25T00:28:38;95558.56;;;9.56;100.00
22255;BME280;11296;42.684;23.322;2022-09-25T00:31:06;95546.81;;;9.45;100.00
22255;BME280;11296;42.684;23.322;2022-09-25T00:33:32;95576.78;;;9.52;100.00
22255;BME280;11296;42.684;23.322;2022-09-25T00:36:05;95569.63;;;9.40;100.00
22255;BME280;11296;42.684;23.322;2022-09-25T00:38:33;95610.97;;;9.70;100.00
22255;BME280;11296;42.684;23.322;2022-09-25T00:41:00;95556.78;;;9.44;100.00
22255;BME280;11296;42.684;23.322;2022-09-25T00:43:37;95574.69;;;9.56;100.00
22255;BME280;11296;42.684;23.322;2022-09-25T00:48:49;95557.69;;;9.41;100.00
22255;BME280;11296;42.684;23.322;2022-09-25T00:51:19;95552.91;;;9.36;100.00
22255;BME280;11296;42.684;23.322;2022-09-25T00:53:45;95603.66;;;9.61;100.00
22255;BME280;11296;42.684;23.322;2022-09-25T00:56:12;95580.78;;;9.39;100.00
22255;BME280;11296;42.684;23.322;2022-09-25T00:58:39;95547.50;;;9.09;100.00
22255;BME280;11296;42.684;23.322;2022-09-25T01:01:06;95557.94;;;9.25;100.00
22255;BME280;11296;42.684;23.322;2022-09-25T01:03:32;95547.94;;;9.17;100.00
22255;BME280;11296;42.684;23.322;2022-09-25T01:05:59;95566.47;;;9.24;100.00
22255;BME280;11296;42.684;23.322;2022-09-25T01:08:26;95564.22;;;9.13;100.00
22255;BME280;11296;42.684;23.322;2022-09-25T01:10:53;95503.31;;;8.74;100.00
22255;BME280;11296;42.684;23.322;2022-09-25T01:13:19;95538.69;;;9.00;100.00
22255;BME280;11296;42.684;23.322;2022-09-25T01:15:58;95576.16;;;9.30;100.00
22255;BME280;11296;42.684;23.322;2022-09-25T01:18:50;95576.00;;;9.25;100.00
22255;BME280;11296;42.684;23.322;2022-09-25T01:21:26;95567.78;;;9.19;100.00
22255;BME280;11296;42.684;23.322;2022-09-25T01:24:05;95563.44;;;9.04;100.00
22255;BME280;11296;42.684;23.322;2022-09-25T01:26:56;95576.13;;;9.03;100.00
22255;BME280;11296;42.684;23.322;2022-09-25T01:32:27;95579.94;;;8.84;100.00
22255;BME280;11296;42.684;23.322;2022-09-25T01:40:16;95580.25;;;8.95;100.00
22255;BME280;11296;42.684;23.322;2022-09-25T01:42:51;95529.47;;;8.52;100.00
22255;BME280;11296;42.684;23.322;2022-09-25T01:45:26;95550.25;;;8.39;100.00
22255;BME280;11296;42.684;23.322;2022-09-25T01:47:55;95535.00;;;8.27;100.00
22255;BME280;11296;42.684;23.322;2022-09-25T01:50:29;95523.28;;;8.11;100.00
22255;BME280;11296;42.684;23.322;2022-09-25T01:53:01;95573.81;;;8.44;100.00
22255;BME280;11296;42.684;23.322;2022-09-25T01:55:33;95535.56;;;8.21;100.00
22255;BME280;11296;42.684;23.322;2022-09-25T01:58:08;95583.84;;;8.52;100.00
22255;BME280;11296;42.684;23.322;2022-09-25T02:00:39;95527.84;;;8.23;100.00
22255;BME280;11296;42.684;23.322;2022-09-25T02:03:16;95561.28;;;8.41;100.00
22255;BME280;11296;42.684;23.322;2022-09-25T02:05:49;95525.97;;;8.11;100.00
22255;BME280;11296;42.684;23.322;2022-09-25T02:08:23;95554.44;;;8.40;100.00
22255;BME280;11296;42.684;23.322;2022-09-25T02:10:57;95548.41;;;8.27;100.00
22255;BME280;11296;42.684;23.322;2022-09-25T02:13:31;95546.16;;;8.25;100.00
22255;BME280;11296;42.684;23.322;2022-09-25T02:16:03;95561.59;;;8.43;100.00
22255;BME280;11296;42.684;23.322;2022-09-25T02:18:32;95539.41;;;8.20;100.00
22255;BME280;11296;42.684;23.322;2022-09-25T02:24:33;95558.91;;;8.43;100.00
22255;BME280;11296;42.684;23.322;2022-09-25T02:27:00;95547.31;;;8.15;100.00
22255;BME280;11296;42.684;23.322;2022-09-25T02:29:28;95522.16;;;7.91;100.00
22255;BME280;11296;42.684;23.322;2022-09-25T02:32:01;95566.97;;;8.21;100.00
22255;BME280;11296;42.684;23.322;2022-09-25T02:34:28;95557.88;;;8.18;100.00
22255;BME280;11296;42.684;23.322;2022-09-25T02:36:55;95553.69;;;8.17;100.00
22255;BME280;11296;42.684;23.322;2022-09-25T02:39:23;95556.56;;;8.23;100.00
22255;BME280;11296;42.684;23.322;2022-09-25T02:54:03;95585.13;;;8.39;100.00
22255;BME280;11296;42.684;23.322;2022-09-25T02:56:39;95551.41;;;8.07;100.00
22255;BME280;11296;42.684;23.322;2022-09-25T02:59:13;95564.22;;;8.34;100.00
22255;BME280;11296;42.684;23.322;2022-09-25T03:01:41;95573.91;;;8.31;100.00
22255;BME280;11296;42.684;23.322;2022-09-25T03:04:08;95557.97;;;8.28;100.00
22255;BME280;11296;42.684;23.322;2022-09-25T03:06:36;95560.00;;;8.23;100.00
22255;BME280;11296;42.684;23.322;2022-09-25T03:09:03;95575.44;;;8.19;100.00
22255;BME280;11296;42.684;23.322;2022-09-25T03:11:28;95540.41;;;7.83;100.00
22255;BME280;11296;42.684;23.322;2022-09-25T03:13:59;95544.19;;;7.95;100.00
22255;BME280;11296;42.684;23.322;2022-09-25T03:16:36;95591.91;;;8.31;100.00
22255;BME280;11296;42.684;23.322;2022-09-25T03:19:05;95564.84;;;8.16;100.00
22255;BME280;11296;42.684;23.322;2022-09-25T03:21:31;95527.69;;;7.96;100.00
22255;BME280;11296;42.684;23.322;2022-09-25T03:23:58;95526.75;;;7.90;100.00
22255;BME280;11296;42.684;23.322;2022-09-25T03:26:24;95550.75;;;8.24;100.00
22255;BME280;11296;42.684;23.322;2022-09-25T03:28:52;95558.19;;;8.20;100.00
22255;BME280;11296;42.684;23.322;2022-09-25T03:31:18;95563.41;;;8.24;100.00
22255;BME280;11296;42.684;23.322;2022-09-25T03:33:45;95551.66;;;8.21;100.00
22255;BME280;11296;42.684;23.322;2022-09-25T03:36:20;95579.63;;;8.20;100.00
22255;BME280;11296;42.684;23.322;2022-09-25T03:38:48;95529.75;;;7.92;100.00
22255;BME280;11296;42.684;23.322;2022-09-25T03:41:16;95560.88;;;7.99;100.00
22255;BME280;11296;42.684;23.322;2022-09-25T03:43:46;95541.31;;;7.89;100.00
22255;BME280;11296;42.684;23.322;2022-09-25T03:46:20;95546.56;;;7.93;100.00
22255;BME280;11296;42.684;23.322;2022-09-25T03:48:47;95561.38;;;8.06;100.00
22255;BME280;11296;42.684;23.322;2022-09-25T03:51:13;95517.53;;;7.70;100.00
22255;BME280;11296;42.684;23.322;2022-09-25T03:53:39;95563.69;;;7.95;100.00
22255;BME280;11296;42.684;23.322;2022-09-25T03:56:08;95535.22;;;7.67;100.00
22255;BME280;11296;42.684;23.322;2022-09-25T03:58:35;95548.44;;;7.83;100.00
22255;BME280;11296;42.684;23.322;2022-09-25T04:01:02;95599.63;;;8.07;100.00
22255;BME280;11296;42.684;23.322;2022-09-25T04:03:29;95545.94;;;7.67;100.00
22255;BME280;11296;42.684;23.322;2022-09-25T04:05:59;95572.47;;;7.74;100.00
22255;BME280;11296;42.684;23.322;2022-09-25T04:08:27;95567.44;;;7.76;100.00
22255;BME280;11296;42.684;23.322;2022-09-25T04:10:53;95546.44;;;7.53;100.00
22255;BME280;11296;42.684;23.322;2022-09-25T04:13:24;95557.25;;;7.49;100.00
22255;BME280;11296;42.684;23.322;2022-09-25T04:15:50;95591.38;;;7.58;100.00
22255;BME280;11296;42.684;23.322;2022-09-25T04:18:16;95567.72;;;7.57;100.00
22255;BME280;11296;42.684;23.322;2022-09-25T04:20:42;95530.16;;;7.26;100.00
22255;BME280;11296;42.684;23.322;2022-09-25T04:23:07;95580.59;;;7.49;100.00
22255;BME280;11296;42.684;23.322;2022-09-25T04:25:33;95557.13;;;7.19;100.00
22255;BME280;11296;42.684;23.322;2022-09-25T04:27:59;95560.84;;;7.34;100.00
22255;BME280;11296;42.684;23.322;2022-09-25T04:30:27;95586.94;;;7.42;100.00
22255;BME280;11296;42.684;23.322;2022-09-25T04:32:54;95595.72;;;7.43;100.00
22255;BME280;11296;42.684;23.322;2022-09-25T04:35:40;95616.16;;;7.71;100.00
22255;BME280;11296;42.684;23.322;2022-09-25T04:38:06;95534.38;;;7.36;100.00
22255;BME280;11296;42.684;23.322;2022-09-25T04:40:32;95545.69;;;7.53;100.00
22255;BME280;11296;42.684;23.322;2022-09-25T04:43:00;95581.94;;;7.66;100.00
22255;BME280;11296;42.684;23.322;2022-09-25T04:45:27;95564.59;;;7.58;100.00
22255;BME280;11296;42.684;23.322;2022-09-25T04:47:53;95531.97;;;7.29;100.00
22255;BME280;11296;42.684;23.322;2022-09-25T04:50:21;95585.03;;;7.65;100.00
22255;BME280;11296;42.684;23.322;2022-09-25T04:52:47;95588.91;;;7.64;100.00
22255;BME280;11296;42.684;23.322;2022-09-25T04:55:16;95546.72;;;7.33;100.00
22255;BME280;11296;42.684;23.322;2022-09-25T04:57:42;95573.53;;;7.55;100.00
22255;BME280;11296;42.684;23.322;2022-09-25T05:00:08;95576.97;;;7.77;100.00
22255;BME280;11296;42.684;23.322;2022-09-25T05:02:34;95555.72;;;7.61;100.00
22255;BME280;11296;42.684;23.322;2022-09-25T05:05:01;95556.47;;;7.83;100.00
22255;BME280;11296;42.684;23.322;2022-09-25T05:07:26;95577.97;;;7.92;100.00
22255;BME280;11296;42.684;23.322;2022-09-25T05:09:52;95562.19;;;7.94;100.00
22255;BME280;11296;42.684;23.322;2022-09-25T05:12:18;95570.59;;;8.05;100.00
22255;BME280;11296;42.684;23.322;2022-09-25T05:14:45;95611.56;;;8.58;100.00
22255;BME280;11296;42.684;23.322;2022-09-25T05:17:11;95532.94;;;8.31;100.00
22255;BME280;11296;42.684;23.322;2022-09-25T05:19:37;95560.44;;;8.53;100.00
22255;BME280;11296;42.684;23.322;2022-09-25T05:22:03;95566.47;;;8.75;100.00
22255;BME280;11296;42.684;23.322;2022-09-25T05:24:29;95546.81;;;8.69;100.00
22255;BME280;11296;42.684;23.322;2022-09-25T05:26:56;95572.38;;;9.01;100.00
22255;BME280;11296;42.684;23.322;2022-09-25T05:29:23;95584.03;;;9.16;100.00
22255;BME280;11296;42.684;23.322;2022-09-25T05:31:48;95514.66;;;8.78;100.00
22255;BME280;11296;42.684;23.322;2022-09-25T05:34:14;95569.28;;;9.11;100.00
22255;BME280;11296;42.684;23.322;2022-09-25T05:36:41;95539.75;;;9.02;100.00
22255;BME280;11296;42.684;23.322;2022-09-25T05:39:10;95541.25;;;9.03;100.00
22255;BME280;11296;42.684;23.322;2022-09-25T05:41:36;95545.09;;;9.02;100.00
22255;BME280;11296;42.684;23.322;2022-09-25T05:44:02;95567.50;;;9.17;100.00
22255;BME280;11296;42.684;23.322;2022-09-25T05:46:37;95549.00;;;9.19;100.00
22255;BME280;11296;42.684;23.322;2022-09-25T05:49:04;95567.69;;;9.59;100.00
22255;BME280;11296;42.684;23.322;2022-09-25T05:51:30;95560.69;;;9.80;100.00
22255;BME280;11296;42.684;23.322;2022-09-25T05:53:56;95559.47;;;9.90;100.00
22255;BME280;11296;42.684;23.322;2022-09-25T05:56:23;95586.59;;;10.37;100.00
22255;BME280;11296;42.684;23.322;2022-09-25T05:58:49;95566.91;;;10.31;100.00
22255;BME280;11296;42.684;23.322;2022-09-25T06:01:15;95555.81;;;10.29;100.00
22255;BME280;11296;42.684;23.322;2022-09-25T06:03:41;95543.53;;;10.46;100.00
22255;BME280;11296;42.684;23.322;2022-09-25T06:06:07;95565.72;;;10.65;100.00
22255;BME280;11296;42.684;23.322;2022-09-25T06:08:33;95535.88;;;10.54;100.00
22255;BME280;11296;42.684;23.322;2022-09-25T06:11:03;95546.94;;;10.56;100.00
22255;BME280;11296;42.684;23.322;2022-09-25T06:13:33;95528.78;;;10.74;100.00
22255;BME280;11296;42.684;23.322;2022-09-25T06:16:03;95541.41;;;11.15;100.00
22255;BME280;11296;42.684;23.322;2022-09-25T06:18:30;95557.59;;;11.30;100.00
22255;BME280;11296;42.684;23.322;2022-09-25T06:21:01;95597.25;;;11.77;100.00
22255;BME280;11296;42.684;23.322;2022-09-25T06:23:27;95561.22;;;11.51;100.00
22255;BME280;11296;42.684;23.322;2022-09-25T06:25:53;95539.38;;;11.49;100.00
22255;BME280;11296;42.684;23.322;2022-09-25T06:28:21;95543.44;;;11.68;100.00
22255;BME280;11296;42.684;23.322;2022-09-25T06:30:46;95569.22;;;11.60;100.00
22255;BME280;11296;42.684;23.322;2022-09-25T06:33:13;95557.03;;;11.73;100.00
22255;BME280;11296;42.684;23.322;2022-09-25T06:35:44;95558.53;;;11.89;100.00
22255;BME280;11296;42.684;23.322;2022-09-25T06:38:11;95520.44;;;11.96;100.00
22255;BME280;11296;42.684;23.322;2022-09-25T06:40:37;95599.09;;;12.68;100.00
22255;BME280;11296;42.684;23.322;2022-09-25T06:43:06;95547.13;;;12.38;100.00
22255;BME280;11296;42.684;23.322;2022-09-25T06:45:34;95525.25;;;12.50;100.00
22255;BME280;11296;42.684;23.322;2022-09-25T06:48:05;95528.13;;;12.61;100.00
22255;BME280;11296;42.684;23.322;2022-09-25T06:50:55;95559.59;;;12.99;100.00
22255;BME280;11296;42.684;23.322;2022-09-25T06:53:21;95557.34;;;13.12;100.00
22255;BME280;11296;42.684;23.322;2022-09-25T06:55:48;95543.91;;;13.18;100.00
22255;BME280;11296;42.684;23.322;2022-09-25T06:58:17;95566.91;;;13.48;100.00
22255;BME280;11296;42.684;23.322;2022-09-25T07:00:50;95533.50;;;13.31;100.00
22255;BME280;11296;42.684;23.322;2022-09-25T07:03:17;95554.06;;;13.63;100.00
22255;BME280;11296;42.684;23.322;2022-09-25T07:06:02;95562.47;;;13.71;100.00
22255;BME280;11296;42.684;23.322;2022-09-25T07:08:29;95561.31;;;13.77;100.00
22255;BME280;11296;42.684;23.322;2022-09-25T07:10:56;95567.16;;;13.30;100.00
22255;BME280;11296;42.684;23.322;2022-09-25T07:13:25;95586.34;;;13.52;100.00
22255;BME280;11296;42.684;23.322;2022-09-25T07:15:57;95585.66;;;13.57;100.00
22255;BME280;11296;42.684;23.322;2022-09-25T07:18:24;95579.44;;;13.31;100.00
22255;BME280;11296;42.684;23.322;2022-09-25T07:20:50;95602.59;;;13.37;100.00
22255;BME280;11296;42.684;23.322;2022-09-25T07:23:17;95608.63;;;13.47;100.00
22255;BME280;11296;42.684;23.322;2022-09-25T07:25:44;95581.59;;;13.27;100.00
22255;BME280;11296;42.684;23.322;2022-09-25T07:28:11;95589.66;;;13.42;100.00
22255;BME280;11296;42.684;23.322;2022-09-25T07:30:41;95594.06;;;13.59;100.00
22255;BME280;11296;42.684;23.322;2022-09-25T07:33:08;95590.75;;;13.70;100.00
22255;BME280;11296;42.684;23.322;2022-09-25T07:35:34;95583.22;;;13.79;100.00
22255;BME280;11296;42.684;23.322;2022-09-25T07:38:02;95562.81;;;13.78;100.00
22255;BME280;11296;42.684;23.322;2022-09-25T07:40:29;95584.16;;;13.96;100.00
22255;BME280;11296;42.684;23.322;2022-09-25T07:43:03;95563.31;;;14.02;100.00
22255;BME280;11296;42.684;23.322;2022-09-25T07:45:31;95576.72;;;14.17;100.00
22255;BME280;11296;42.684;23.322;2022-09-25T07:47:57;95563.50;;;14.45;100.00
22255;BME280;11296;42.684;23.322;2022-09-25T07:50:29;95572.69;;;14.58;100.00
22255;BME280;11296;42.684;23.322;2022-09-25T07:52:56;95507.88;;;14.18;100.00
22255;BME280;11296;42.684;23.322;2022-09-25T07:55:24;95511.38;;;14.24;100.00
22255;BME280;11296;42.684;23.322;2022-09-25T07:57:57;95512.75;;;14.40;100.00
22255;BME280;11296;42.684;23.322;2022-09-25T08:00:33;95525.13;;;14.46;100.00
22255;BME280;11296;42.684;23.322;2022-09-25T08:03:07;95501.00;;;14.43;100.00
22255;BME280;11296;42.684;23.322;2022-09-25T08:05:38;95520.13;;;14.70;100.00
22255;BME280;11296;42.684;23.322;2022-09-25T08:08:04;95514.00;;;14.75;100.00
22255;BME280;11296;42.684;23.322;2022-09-25T08:10:29;95491.34;;;14.73;100.00
22255;BME280;11296;42.684;23.322;2022-09-25T08:12:56;95528.34;;;14.87;98.70
22255;BME280;11296;42.684;23.322;2022-09-25T08:15:23;95524.34;;;14.77;95.64
22255;BME280;11296;42.684;23.322;2022-09-25T08:17:50;95517.97;;;14.80;97.63
22255;BME280;11296;42.684;23.322;2022-09-25T08:20:16;95550.94;;;15.15;96.67
22255;BME280;11296;42.684;23.322;2022-09-25T08:22:42;95516.69;;;15.12;98.28
22255;BME280;11296;42.684;23.322;2022-09-25T08:25:07;95527.25;;;15.52;97.02
22255;BME280;11296;42.684;23.322;2022-09-25T08:27:35;95526.53;;;15.63;94.92
22255;BME280;11296;42.684;23.322;2022-09-25T08:30:10;95498.16;;;15.58;92.10
22255;BME280;11296;42.684;23.322;2022-09-25T08:32:36;95511.75;;;15.64;89.75
22255;BME280;11296;42.684;23.322;2022-09-25T08:35:03;95497.91;;;15.56;92.91
22255;BME280;11296;42.684;23.322;2022-09-25T08:37:29;95492.53;;;15.73;95.95
22255;BME280;11296;42.684;23.322;2022-09-25T08:39:58;95486.41;;;15.89;92.03
22255;BME280;11296;42.684;23.322;2022-09-25T08:42:34;95504.94;;;16.24;90.44
22255;BME280;11296;42.684;23.322;2022-09-25T08:45:08;95499.50;;;16.35;88.76
22255;BME280;11296;42.684;23.322;2022-09-25T08:48:00;95490.88;;;16.31;84.20
22255;BME280;11296;42.684;23.322;2022-09-25T08:50:49;95523.25;;;16.62;89.62
22255;BME280;11296;42.684;23.322;2022-09-25T08:53:20;95512.63;;;16.64;88.10
22255;BME280;11296;42.684;23.322;2022-09-25T08:55:47;95523.94;;;16.90;85.72
22255;BME280;11296;42.684;23.322;2022-09-25T08:58:37;95507.16;;;16.86;85.35
22255;BME280;11296;42.684;23.322;2022-09-25T09:01:09;95468.41;;;16.75;82.01
22255;BME280;11296;42.684;23.322;2022-09-25T09:06:16;95463.50;;;16.62;77.82
22255;BME280;11296;42.684;23.322;2022-09-25T09:08:48;95482.44;;;16.95;79.34
22255;BME280;11296;42.684;23.322;2022-09-25T09:11:23;95472.28;;;17.07;81.10
22255;BME280;11296;42.684;23.322;2022-09-25T09:13:57;95465.50;;;17.36;73.96
22255;BME280;11296;42.684;23.322;2022-09-25T09:17:02;95466.28;;;18.77;70.49
22255;BME280;11296;42.684;23.322;2022-09-25T09:19:29;95474.88;;;21.52;57.07
22255;BME280;11296;42.684;23.322;2022-09-25T09:22:11;95473.75;;;23.53;49.23
22255;BME280;11296;42.684;23.322;2022-09-25T09:29:49;95467.38;;;26.57;38.78
22255;BME280;11296;42.684;23.322;2022-09-25T09:32:46;95475.72;;;24.92;39.87
22255;BME280;11296;42.684;23.322;2022-09-25T09:35:46;95464.53;;;24.98;40.79
22255;BME280;11296;42.684;23.322;2022-09-25T09:41:01;95463.66;;;23.99;41.15
22255;BME280;11296;42.684;23.322;2022-09-25T09:52:06;95445.56;;;28.95;31.94
22255;BME280;11296;42.684;23.322;2022-09-25T09:57:14;95418.25;;;25.19;36.13
22255;BME280;11296;42.684;23.322;2022-09-25T09:59:49;95440.66;;;24.70;37.46
22255;BME280;11296;42.684;23.322;2022-09-25T10:02:33;95422.88;;;26.28;36.18
22255;BME280;11296;42.684;23.322;2022-09-25T10:05:05;95417.47;;;28.17;33.52
22255;BME280;11296;42.684;23.322;2022-09-25T10:07:35;95412.53;;;29.64;32.26
22255;BME280;11296;42.684;23.322;2022-09-25T10:10:14;95414.00;;;30.96;29.99
22255;BME280;11296;42.684;23.322;2022-09-25T10:12:50;95407.00;;;30.64;28.96
22255;BME280;11296;42.684;23.322;2022-09-25T10:15:26;95402.44;;;31.20;28.78
22255;BME280;11296;42.684;23.322;2022-09-25T10:17:54;95410.19;;;30.39;30.40
22255;BME280;11296;42.684;23.322;2022-09-25T10:20:23;95401.34;;;30.12;30.55
22255;BME280;11296;42.684;23.322;2022-09-25T10:22:52;95399.72;;;29.40;31.31
22255;BME280;11296;42.684;23.322;2022-09-25T10:25:38;95396.06;;;30.16;30.88
22255;BME280;11296;42.684;23.322;2022-09-25T10:28:26;95388.06;;;30.51;30.06
22255;BME280;11296;42.684;23.322;2022-09-25T10:30:52;95390.97;;;31.26;29.26
22255;BME280;11296;42.684;23.322;2022-09-25T10:33:21;95385.69;;;31.63;29.52
22255;BME280;11296;42.684;23.322;2022-09-25T10:35:48;95368.06;;;32.37;27.78
22255;BME280;11296;42.684;23.322;2022-09-25T10:41:10;95381.25;;;31.15;29.54
22255;BME280;11296;42.684;23.322;2022-09-25T10:43:57;95337.94;;;31.66;27.61
22255;BME280;11296;42.684;23.322;2022-09-25T10:46:29;95346.28;;;32.34;27.54
22255;BME280;11296;42.684;23.322;2022-09-25T10:49:25;95339.94;;;33.28;25.60
22255;BME280;11296;42.684;23.322;2022-09-25T10:52:12;95372.97;;;34.34;25.51
22255;BME280;11296;42.684;23.322;2022-09-25T10:54:38;95373.56;;;35.70;24.00
22255;BME280;11296;42.684;23.322;2022-09-25T10:59:50;95372.16;;;35.13;25.10
22255;BME280;11296;42.684;23.322;2022-09-25T11:02:41;95376.47;;;34.48;24.42
22255;BME280;11296;42.684;23.322;2022-09-25T11:05:17;95344.25;;;32.94;25.34
22255;BME280;11296;42.684;23.322;2022-09-25T11:07:53;95355.34;;;33.29;24.96
22255;BME280;11296;42.684;23.322;2022-09-25T11:10:21;95340.63;;;34.70;24.10
22255;BME280;11296;42.684;23.322;2022-09-25T11:12:49;95344.03;;;34.68;23.67
22255;BME280;11296;42.684;23.322;2022-09-25T11:15:21;95332.09;;;34.13;24.49
22255;BME280;11296;42.684;23.322;2022-09-25T11:17:53;95349.06;;;34.31;24.33
22255;BME280;11296;42.684;23.322;2022-09-25T11:20:26;95366.44;;;34.29;23.98
22255;BME280;11296;42.684;23.322;2022-09-25T11:28:32;95361.41;;;34.80;23.51
22255;BME280;11296;42.684;23.322;2022-09-25T11:31:02;95351.97;;;35.01;23.42
22255;BME280;11296;42.684;23.322;2022-09-25T11:36:19;95323.94;;;34.72;23.63
22255;BME280;11296;42.684;23.322;2022-09-25T11:38:53;95351.88;;;34.85;23.70
22255;BME280;11296;42.684;23.322;2022-09-25T11:41:44;95311.63;;;34.50;23.22
22255;BME280;11296;42.684;23.322;2022-09-25T11:44:28;95311.75;;;34.65;23.38
22255;BME280;11296;42.684;23.322;2022-09-25T11:47:15;95315.44;;;34.15;23.66
22255;BME280;11296;42.684;23.322;2022-09-25T11:49:47;95314.00;;;35.54;21.75
22255;BME280;11296;42.684;23.322;2022-09-25T12:11:40;95300.75;;;34.42;22.64
22255;BME280;11296;42.684;23.322;2022-09-25T12:19:43;95276.06;;;35.36;22.41
22255;BME280;11296;42.684;23.322;2022-09-25T12:22:31;95285.84;;;34.78;22.10
22255;BME280;11296;42.684;23.322;2022-09-25T12:28:00;95229.19;;;35.36;21.54
22255;BME280;11296;42.684;23.322;2022-09-25T12:31:05;95272.72;;;36.64;20.46
22255;BME280;11296;42.684;23.322;2022-09-25T12:36:24;95254.78;;;36.38;20.77
22255;BME280;11296;42.684;23.322;2022-09-25T12:39:22;95262.09;;;35.67;21.13
22255;BME280;11296;42.684;23.322;2022-09-25T12:44:55;95237.97;;;34.86;21.33
22255;BME280;11296;42.684;23.322;2022-09-25T12:47:31;95236.16;;;33.95;22.42
22255;BME280;11296;42.684;23.322;2022-09-25T12:50:09;95227.84;;;34.79;21.67
22255;BME280;11296;42.684;23.322;2022-09-25T12:52:41;95207.22;;;35.60;21.67
22255;BME280;11296;42.684;23.322;2022-09-25T12:55:24;95191.34;;;34.05;21.95
22255;BME280;11296;42.684;23.322;2022-09-25T12:57:59;95222.53;;;35.43;21.27
22255;BME280;11296;42.684;23.322;2022-09-25T13:00:30;95218.47;;;35.01;21.64
22255;BME280;11296;42.684;23.322;2022-09-25T13:05:39;95189.50;;;35.40;21.44
22255;BME280;11296;42.684;23.322;2022-09-25T13:08:36;95214.59;;;35.38;21.34
22255;BME280;11296;42.684;23.322;2022-09-25T13:11:14;95182.66;;;35.58;21.50
22255;BME280;11296;42.684;23.322;2022-09-25T13:13:50;95170.28;;;34.87;22.05
22255;BME280;11296;42.684;23.322;2022-09-25T13:16:18;95181.75;;;35.85;21.43
22255;BME280;11296;42.684;23.322;2022-09-25T13:19:08;95171.06;;;35.19;21.51
22255;BME280;11296;42.684;23.322;2022-09-25T13:21:37;95189.22;;;35.34;22.29
22255;BME280;11296;42.684;23.322;2022-09-25T13:24:05;95186.59;;;36.16;22.21
22255;BME280;11296;42.684;23.322;2022-09-25T13:26:46;95184.91;;;35.93;22.22
22255;BME280;11296;42.684;23.322;2022-09-25T13:29:24;95183.81;;;36.00;21.68
22255;BME280;11296;42.684;23.322;2022-09-25T13:32:02;95184.69;;;34.25;22.87
22255;BME280;11296;42.684;23.322;2022-09-25T13:34:33;95159.25;;;34.19;22.71
22255;BME280;11296;42.684;23.322;2022-09-25T13:37:03;95181.47;;;34.87;22.64
22255;BME280;11296;42.684;23.322;2022-09-25T13:39:33;95167.22;;;34.68;22.09
22255;BME280;11296;42.684;23.322;2022-09-25T13:42:31;95193.34;;;34.45;22.32
22255;BME280;11296;42.684;23.322;2022-09-25T13:50:17;95166.25;;;35.51;22.00
22255;BME280;11296;42.684;23.322;2022-09-25T13:58:24;95153.75;;;35.38;22.52
22255;BME280;11296;42.684;23.322;2022-09-25T14:00:53;95162.03;;;35.36;22.65
22255;BME280;11296;42.684;23.322;2022-09-25T14:03:39;95171.63;;;35.16;22.43
22255;BME280;11296;42.684;23.322;2022-09-25T14:06:28;95142.00;;;33.82;23.58
22255;BME280;11296;42.684;23.322;2022-09-25T14:09:06;95138.66;;;33.45;24.32
22255;BME280;11296;42.684;23.322;2022-09-25T14:11:37;95163.41;;;32.50;24.89
22255;BME280;11296;42.684;23.322;2022-09-25T14:14:35;95128.53;;;32.60;24.26
22255;BME280;11296;42.684;23.322;2022-09-25T14:17:03;95124.09;;;31.95;24.23
22255;BME280;11296;42.684;23.322;2022-09-25T14:19:34;95119.16;;;30.15;26.29
22255;BME280;11296;42.684;23.322;2022-09-25T14:22:03;95139.72;;;30.21;26.34
22255;BME280;11296;42.684;23.322;2022-09-25T14:24:31;95135.38;;;30.84;26.03
22255;BME280;11296;42.684;23.322;2022-09-25T14:26:58;95105.06;;;31.43;25.44
22255;BME280;11296;42.684;23.322;2022-09-25T14:29:38;95131.94;;;33.36;24.32
22255;BME280;11296;42.684;23.322;2022-09-25T14:35:07;95150.56;;;34.27;23.96
22255;BME280;11296;42.684;23.322;2022-09-25T14:38:29;95104.66;;;35.35;22.83
22255;BME280;11296;42.684;23.322;2022-09-25T14:41:27;95146.91;;;36.21;23.05
22255;BME280;11296;42.684;23.322;2022-09-25T14:44:28;95147.59;;;36.55;22.22
22255;BME280;11296;42.684;23.322;2022-09-25T14:46:58;95122.34;;;35.71;22.68
22255;BME280;11296;42.684;23.322;2022-09-25T14:49:29;95122.34;;;33.80;23.75
22255;BME280;11296;42.684;23.322;2022-09-25T14:52:05;95128.97;;;33.73;23.84
22255;BME280;11296;42.684;23.322;2022-09-25T14:54:34;95129.28;;;33.00;24.67
22255;BME280;11296;42.684;23.322;2022-09-25T14:57:06;95125.22;;;31.44;25.42
22255;BME280;11296;42.684;23.322;2022-09-25T14:59:38;95133.16;;;29.74;26.99
22255;BME280;11296;42.684;23.322;2022-09-25T15:02:26;95159.00;;;28.87;27.74
22255;BME280;11296;42.684;23.322;2022-09-25T15:05:31;95112.72;;;28.39;28.14